createdAt,value
2019-02-09T00:26:46.237Z,995.90
2019-02-09T00:26:46.807Z,995.88
2019-02-09T00:26:47.408Z,995.86
2019-02-09T00:26:48.006Z,995.86
2019-02-09T00:26:48.605Z,995.87
2019-02-09T00:26:49.212Z,995.85
2019-02-09T00:26:49.807Z,995.83
2019-02-09T00:26:50.405Z,995.83
2019-02-09T00:27:44.910Z,995.85
2019-02-09T00:27:45.491Z,995.88
2019-02-09T00:27:47.544Z,995.88
2019-02-09T00:27:47.608Z,995.90
2019-02-09T00:27:47.634Z,995.87
2019-02-09T00:27:47.882Z,995.87
2019-02-09T00:27:48.483Z,995.89
2019-02-09T00:27:49.082Z,995.86
2019-02-09T00:28:42.703Z,995.78
2019-02-09T00:28:43.170Z,995.77
2019-02-09T00:28:43.765Z,995.76
2019-02-09T00:28:44.361Z,995.76
2019-02-09T00:28:44.961Z,995.78
2019-02-09T00:28:45.566Z,995.77
2019-02-09T00:28:46.162Z,995.74
2019-02-09T00:28:46.765Z,995.74
2019-02-09T00:29:46.143Z,995.74
2019-02-09T00:29:46.191Z,995.77
2019-02-09T00:29:46.274Z,995.77
2019-02-09T00:29:46.299Z,995.76
2019-02-09T00:29:46.304Z,995.72
2019-02-09T00:29:46.362Z,995.77
2019-02-09T00:29:46.405Z,995.77
2019-02-09T00:29:46.427Z,995.79
2019-02-09T00:30:38.996Z,995.73
2019-02-09T00:30:39.568Z,995.67
2019-02-09T00:30:40.166Z,995.73
2019-02-09T00:30:40.769Z,995.73
2019-02-09T00:30:41.367Z,995.69
2019-02-09T00:30:41.967Z,995.68
2019-02-09T00:30:42.566Z,995.71
2019-02-09T00:30:43.167Z,995.72
2019-02-09T00:31:36.647Z,995.78
2019-02-09T00:31:37.219Z,995.78
2019-02-09T00:31:37.842Z,995.73
2019-02-09T00:31:38.420Z,995.72
2019-02-09T00:31:39.019Z,995.76
2019-02-09T00:31:39.619Z,995.72
2019-02-09T00:31:40.222Z,995.74
2019-02-09T00:31:40.819Z,995.75
2019-02-09T00:32:34.809Z,995.62
2019-02-09T00:32:35.389Z,995.56
2019-02-09T00:32:35.984Z,995.62
2019-02-09T00:32:36.583Z,995.61
2019-02-09T00:32:37.184Z,995.63
2019-02-09T00:32:37.786Z,995.63
2019-02-09T00:32:38.385Z,995.60
2019-02-09T00:33:32.874Z,995.66
2019-02-09T00:33:33.444Z,995.65
2019-02-09T00:33:34.044Z,995.64
2019-02-09T00:33:34.646Z,995.63
2019-02-09T00:33:35.244Z,995.65
2019-02-09T00:33:35.845Z,995.71
2019-02-09T00:33:36.447Z,995.64
2019-02-09T00:33:37.044Z,995.70
2019-02-09T00:34:30.525Z,995.62
2019-02-09T00:34:31.097Z,995.58
2019-02-09T00:34:31.698Z,995.60
2019-02-09T00:34:32.297Z,995.61
2019-02-09T00:34:32.896Z,995.62
2019-02-09T00:34:33.499Z,995.62
2019-02-09T00:34:34.104Z,995.60
2019-02-09T00:34:34.696Z,995.65
2019-02-09T00:35:28.184Z,995.56
2019-02-09T00:35:28.750Z,995.55
2019-02-09T00:35:29.350Z,995.59
2019-02-09T00:35:29.948Z,995.56
2019-02-09T00:35:30.549Z,995.55
2019-02-09T00:35:31.148Z,995.51
2019-02-09T00:35:31.748Z,995.57
2019-02-09T00:35:32.347Z,995.58
2019-02-09T00:36:26.852Z,995.55
2019-02-09T00:36:27.424Z,995.53
2019-02-09T00:36:28.030Z,995.50
2019-02-09T00:36:28.629Z,995.56
2019-02-09T00:36:29.224Z,995.57
2019-02-09T00:36:29.824Z,995.60
2019-02-09T00:36:30.424Z,995.61
2019-02-09T00:36:31.025Z,995.60
2019-02-09T00:37:24.504Z,995.62
2019-02-09T00:37:25.083Z,995.61
2019-02-09T00:37:25.677Z,995.59
2019-02-09T00:37:26.277Z,995.59
2019-02-09T00:37:26.877Z,995.64
2019-02-09T00:37:27.478Z,995.61
2019-02-09T00:37:28.077Z,995.61
2019-02-09T00:37:28.676Z,995.60
2019-02-09T00:38:22.169Z,995.63
2019-02-09T00:38:22.742Z,995.60
2019-02-09T00:38:23.328Z,995.62
2019-02-09T00:38:23.929Z,995.59
2019-02-09T00:38:24.532Z,995.59
2019-02-09T00:38:25.130Z,995.62
2019-02-09T00:38:25.735Z,995.59
2019-02-09T00:38:26.328Z,995.58
2019-02-09T00:39:20.831Z,995.53
2019-02-09T00:39:21.414Z,995.51
2019-02-09T00:39:22.009Z,995.53
2019-02-09T00:39:22.605Z,995.46
2019-02-09T00:39:23.203Z,995.54
2019-02-09T00:39:23.805Z,995.49
2019-02-09T00:39:24.404Z,995.54
2019-02-09T00:39:25.002Z,995.54
2019-02-09T00:40:18.486Z,995.56
2019-02-09T00:40:19.056Z,995.54
2019-02-09T00:40:19.656Z,995.56
2019-02-09T00:40:20.256Z,995.54
2019-02-09T00:40:20.862Z,995.59
2019-02-09T00:40:21.457Z,995.55
2019-02-09T00:40:22.055Z,995.55
2019-02-09T00:40:22.661Z,995.54
2019-02-09T00:41:17.160Z,995.59
2019-02-09T00:41:17.733Z,995.58
2019-02-09T00:41:18.332Z,995.59
2019-02-09T00:41:18.932Z,995.61
2019-02-09T00:41:19.533Z,995.60
2019-02-09T00:41:20.131Z,995.59
2019-02-09T00:41:20.731Z,995.58
2019-02-09T00:41:21.332Z,995.61
2019-02-09T00:42:14.812Z,995.55
2019-02-09T00:42:15.384Z,995.48
2019-02-09T00:42:15.992Z,995.50
2019-02-09T00:42:16.585Z,995.52
2019-02-09T00:42:17.184Z,995.51
2019-02-09T00:42:17.785Z,995.51
2019-02-09T00:42:18.383Z,995.54
2019-02-09T00:42:18.984Z,995.52
2019-02-09T00:43:12.465Z,995.57
2019-02-09T00:43:13.037Z,995.56
2019-02-09T00:43:13.638Z,995.57
2019-02-09T00:43:14.236Z,995.55
2019-02-09T00:43:14.836Z,995.57
2019-02-09T00:43:15.462Z,995.55
2019-02-09T00:43:16.037Z,995.58
2019-02-09T00:43:16.637Z,995.59
2019-02-09T00:44:10.117Z,995.60
2019-02-09T00:44:10.692Z,995.61
2019-02-09T00:44:11.288Z,995.58
2019-02-09T00:44:11.888Z,995.59
2019-02-09T00:44:12.488Z,995.59
2019-02-09T00:44:13.089Z,995.57
2019-02-09T00:44:13.687Z,995.57
2019-02-09T00:44:14.287Z,995.55
2019-02-09T00:45:08.790Z,995.52
2019-02-09T00:45:09.363Z,995.50
2019-02-09T00:45:09.962Z,995.49
2019-02-09T00:45:10.562Z,995.52
2019-02-09T00:45:11.163Z,995.47
2019-02-09T00:45:11.764Z,995.51
2019-02-09T00:45:12.363Z,995.52
2019-02-09T00:45:12.962Z,995.54
2019-02-09T00:46:07.466Z,995.49
2019-02-09T00:46:08.040Z,995.50
2019-02-09T00:46:08.638Z,995.44
2019-02-09T00:46:09.240Z,995.48
2019-02-09T00:46:09.862Z,995.46
2019-02-09T00:46:10.436Z,995.46
2019-02-09T00:46:11.036Z,995.49
2019-02-09T00:46:11.637Z,995.48
2019-02-09T00:47:05.117Z,995.53
2019-02-09T00:47:05.691Z,995.53
2019-02-09T00:47:06.291Z,995.48
2019-02-09T00:47:06.890Z,995.51
2019-02-09T00:47:07.491Z,995.49
2019-02-09T00:47:08.093Z,995.46
2019-02-09T00:47:08.690Z,995.47
2019-02-09T00:47:09.290Z,995.49
2019-02-09T00:48:02.772Z,995.60
2019-02-09T00:48:03.343Z,995.57
2019-02-09T00:48:03.944Z,995.57
2019-02-09T00:48:04.545Z,995.58
2019-02-09T00:48:05.144Z,995.59
2019-02-09T00:48:05.743Z,995.61
2019-02-09T00:48:06.345Z,995.61
2019-02-09T00:48:06.941Z,995.60
2019-02-09T00:49:00.423Z,995.50
2019-02-09T00:49:00.997Z,995.49
2019-02-09T00:49:01.595Z,995.50
2019-02-09T00:49:02.195Z,995.52
2019-02-09T00:49:02.794Z,995.49
2019-02-09T00:49:03.401Z,995.51
2019-02-09T00:49:03.996Z,995.50
2019-02-09T00:49:04.599Z,995.54
2019-02-09T00:49:58.072Z,995.49
2019-02-09T00:49:58.669Z,995.53
2019-02-09T00:49:59.247Z,995.55
2019-02-09T00:49:59.847Z,995.50
2019-02-09T00:50:00.446Z,995.52
2019-02-09T00:50:01.048Z,995.52
2019-02-09T00:50:01.645Z,995.52
2019-02-09T00:50:02.247Z,995.53
2019-02-09T00:50:56.752Z,995.48
2019-02-09T00:50:57.320Z,995.50
2019-02-09T00:50:57.925Z,995.48
2019-02-09T00:50:58.521Z,995.46
2019-02-09T00:50:59.119Z,995.48
2019-02-09T00:50:59.719Z,995.49
2019-02-09T00:51:00.321Z,995.47
2019-02-09T00:51:00.921Z,995.48
2019-02-09T00:51:55.424Z,995.42
2019-02-09T00:51:55.996Z,995.38
2019-02-09T00:51:56.597Z,995.46
2019-02-09T00:51:57.196Z,995.41
2019-02-09T00:51:57.800Z,995.43
2019-02-09T00:51:58.426Z,995.46
2019-02-09T00:51:59.000Z,995.48
2019-02-09T00:51:59.595Z,995.47
2019-02-09T00:52:53.590Z,995.35
2019-02-09T00:52:54.166Z,995.31
2019-02-09T00:52:54.761Z,995.40
2019-02-09T00:52:55.362Z,995.38
2019-02-09T00:52:55.962Z,995.39
2019-02-09T00:52:56.560Z,995.37
2019-02-09T00:52:57.161Z,995.37
2019-02-09T00:53:51.650Z,995.53
2019-02-09T00:53:52.223Z,995.47
2019-02-09T00:53:52.825Z,995.50
2019-02-09T00:53:53.433Z,995.48
2019-02-09T00:53:54.023Z,995.47
2019-02-09T00:53:54.621Z,995.45
2019-02-09T00:53:55.222Z,995.45
2019-02-09T00:53:55.823Z,995.46
2019-02-09T00:54:49.306Z,995.46
2019-02-09T00:54:49.875Z,995.51
2019-02-09T00:54:50.474Z,995.47
2019-02-09T00:54:51.074Z,995.50
2019-02-09T00:54:51.674Z,995.48
2019-02-09T00:54:52.275Z,995.53
2019-02-09T00:54:52.873Z,995.53
2019-02-09T00:54:53.475Z,995.55
2019-02-09T00:55:46.952Z,995.58
2019-02-09T00:55:47.529Z,995.55
2019-02-09T00:55:48.126Z,995.57
2019-02-09T00:55:48.730Z,995.56
2019-02-09T00:55:49.325Z,995.55
2019-02-09T00:55:49.929Z,995.54
2019-02-09T00:55:50.525Z,995.51
2019-02-09T00:55:51.130Z,995.45
2019-02-09T00:56:44.609Z,995.53
2019-02-09T00:56:45.178Z,995.58
2019-02-09T00:56:45.780Z,995.49
2019-02-09T00:56:46.378Z,995.51
2019-02-09T00:56:46.977Z,995.52
2019-02-09T00:56:47.578Z,995.47
2019-02-09T00:56:48.177Z,995.54
2019-02-09T00:56:48.780Z,995.51
2019-02-09T00:57:42.264Z,995.52
2019-02-09T00:57:42.831Z,995.51
2019-02-09T00:57:43.429Z,995.49
2019-02-09T00:57:44.030Z,995.51
2019-02-09T00:57:44.629Z,995.50
2019-02-09T00:57:45.238Z,995.48
2019-02-09T00:57:45.829Z,995.52
2019-02-09T00:57:46.434Z,995.54
2019-02-09T00:58:39.909Z,995.56
2019-02-09T00:58:40.483Z,995.56
2019-02-09T00:58:41.085Z,995.56
2019-02-09T00:58:41.686Z,995.55
2019-02-09T00:58:42.283Z,995.58
2019-02-09T00:58:42.882Z,995.51
2019-02-09T00:58:43.480Z,995.57
2019-02-09T00:58:44.087Z,995.55
2019-02-09T00:59:37.559Z,995.59
2019-02-09T00:59:38.139Z,995.61
2019-02-09T00:59:38.734Z,995.58
2019-02-09T00:59:39.333Z,995.56
2019-02-09T00:59:39.934Z,995.53
2019-02-09T00:59:40.534Z,995.52
2019-02-09T00:59:41.132Z,995.52
2019-02-09T00:59:41.735Z,995.56
2019-02-09T01:00:35.216Z,995.55
2019-02-09T01:00:35.785Z,995.56
2019-02-09T01:00:36.400Z,995.52
2019-02-09T01:00:36.986Z,995.52
2019-02-09T01:00:37.597Z,995.54
2019-02-09T01:00:38.186Z,995.53
2019-02-09T01:00:38.785Z,995.56
2019-02-09T01:00:39.384Z,995.53
2019-02-09T01:01:33.887Z,995.55
2019-02-09T01:01:34.460Z,995.51
2019-02-09T01:01:35.060Z,995.52
2019-02-09T01:01:35.658Z,995.55
2019-02-09T01:01:36.262Z,995.51
2019-02-09T01:01:36.864Z,995.55
2019-02-09T01:01:37.460Z,995.54
2019-02-09T01:01:38.064Z,995.56
2019-02-09T01:02:31.540Z,995.52
2019-02-09T01:02:32.115Z,995.55
2019-02-09T01:02:32.712Z,995.58
2019-02-09T01:02:33.313Z,995.61
2019-02-09T01:02:33.914Z,995.59
2019-02-09T01:02:34.512Z,995.66
2019-02-09T01:02:35.111Z,995.65
2019-02-09T01:02:35.712Z,995.61
2019-02-09T01:03:29.198Z,995.53
2019-02-09T01:03:29.764Z,995.58
2019-02-09T01:03:30.364Z,995.57
2019-02-09T01:03:30.965Z,995.61
2019-02-09T01:03:31.566Z,995.60
2019-02-09T01:03:32.164Z,995.58
2019-02-09T01:03:32.764Z,995.54
2019-02-09T01:03:33.367Z,995.57
2019-02-09T01:04:26.846Z,995.55
2019-02-09T01:04:27.416Z,995.55
2019-02-09T01:04:28.017Z,995.58
2019-02-09T01:04:28.616Z,995.57
2019-02-09T01:04:29.215Z,995.56
2019-02-09T01:04:29.820Z,995.55
2019-02-09T01:04:30.415Z,995.55
2019-02-09T01:04:31.019Z,995.56
2019-02-09T01:05:25.528Z,995.60
2019-02-09T01:05:26.094Z,995.62
2019-02-09T01:05:26.691Z,995.58
2019-02-09T01:05:27.291Z,995.60
2019-02-09T01:05:27.891Z,995.62
2019-02-09T01:05:28.492Z,995.64
2019-02-09T01:05:29.089Z,995.64
2019-02-09T01:05:29.689Z,995.61
2019-02-09T01:06:23.170Z,995.53
2019-02-09T01:06:23.747Z,995.54
2019-02-09T01:06:24.344Z,995.52
2019-02-09T01:06:24.946Z,995.53
2019-02-09T01:06:25.542Z,995.55
2019-02-09T01:06:26.145Z,995.53
2019-02-09T01:06:26.744Z,995.54
2019-02-09T01:06:27.343Z,995.55
2019-02-09T01:07:20.824Z,995.57
2019-02-09T01:07:21.396Z,995.57
2019-02-09T01:07:21.993Z,995.51
2019-02-09T01:07:22.594Z,995.50
2019-02-09T01:07:23.198Z,995.54
2019-02-09T01:07:23.793Z,995.56
2019-02-09T01:07:24.393Z,995.53
2019-02-09T01:07:24.994Z,995.56
2019-02-09T01:08:18.473Z,995.58
2019-02-09T01:08:19.048Z,995.57
2019-02-09T01:08:19.647Z,995.60
2019-02-09T01:08:20.248Z,995.54
2019-02-09T01:08:20.851Z,995.59
2019-02-09T01:08:21.448Z,995.58
2019-02-09T01:08:22.047Z,995.53
2019-02-09T01:08:22.646Z,995.56
2019-02-09T01:09:16.126Z,995.60
2019-02-09T01:09:16.699Z,995.63
2019-02-09T01:09:17.299Z,995.60
2019-02-09T01:09:17.900Z,995.59
2019-02-09T01:09:18.500Z,995.58
2019-02-09T01:09:19.098Z,995.61
2019-02-09T01:09:19.698Z,995.56
2019-02-09T01:09:20.300Z,995.62
2019-02-09T01:10:14.801Z,995.51
2019-02-09T01:10:15.374Z,995.50
2019-02-09T01:10:15.975Z,995.53
2019-02-09T01:10:16.577Z,995.51
2019-02-09T01:10:17.211Z,995.52
2019-02-09T01:10:17.776Z,995.53
2019-02-09T01:10:18.373Z,995.54
2019-02-09T01:10:18.972Z,995.55
2019-02-09T01:11:12.457Z,995.54
2019-02-09T01:11:13.044Z,995.56
2019-02-09T01:11:13.625Z,995.58
2019-02-09T01:11:14.224Z,995.57
2019-02-09T01:11:14.824Z,995.59
2019-02-09T01:11:15.425Z,995.58
2019-02-09T01:11:16.024Z,995.56
2019-02-09T01:11:16.625Z,995.56
2019-02-09T01:12:11.127Z,995.57
2019-02-09T01:12:11.701Z,995.58
2019-02-09T01:12:12.300Z,995.55
2019-02-09T01:12:14.282Z,995.57
2019-02-09T01:12:14.303Z,995.59
2019-02-09T01:12:14.371Z,995.58
2019-02-09T01:12:14.699Z,995.56
2019-02-09T01:12:15.300Z,995.53
2019-02-09T01:13:09.808Z,995.49
2019-02-09T01:13:10.377Z,995.54
2019-02-09T01:13:10.985Z,995.51
2019-02-09T01:13:11.576Z,995.53
2019-02-09T01:13:12.177Z,995.48
2019-02-09T01:13:12.777Z,995.47
2019-02-09T01:13:13.378Z,995.48
2019-02-09T01:13:13.976Z,995.53
2019-02-09T01:14:08.481Z,995.44
2019-02-09T01:14:09.053Z,995.44
2019-02-09T01:14:09.658Z,995.42
2019-02-09T01:14:10.254Z,995.45
2019-02-09T01:14:10.856Z,995.43
2019-02-09T01:14:11.453Z,995.46
2019-02-09T01:14:12.056Z,995.42
2019-02-09T01:14:12.652Z,995.45
2019-02-09T01:15:06.135Z,995.49
2019-02-09T01:15:06.706Z,995.50
2019-02-09T01:15:07.307Z,995.47
2019-02-09T01:15:07.904Z,995.48
2019-02-09T01:15:08.504Z,995.51
2019-02-09T01:15:09.105Z,995.43
2019-02-09T01:15:09.704Z,995.48
2019-02-09T01:15:10.306Z,995.49
2019-02-09T01:16:04.820Z,995.43
2019-02-09T01:16:05.383Z,995.45
2019-02-09T01:16:05.980Z,995.46
2019-02-09T01:16:06.580Z,995.42
2019-02-09T01:16:07.181Z,995.44
2019-02-09T01:16:07.798Z,995.43
2019-02-09T01:16:08.381Z,995.43
2019-02-09T01:16:08.980Z,995.41
2019-02-09T01:17:02.463Z,995.47
2019-02-09T01:17:03.031Z,995.45
2019-02-09T01:17:03.630Z,995.48
2019-02-09T01:17:04.233Z,995.44
2019-02-09T01:17:04.832Z,995.46
2019-02-09T01:17:05.432Z,995.43
2019-02-09T01:17:06.031Z,995.45
2019-02-09T01:17:06.631Z,995.44
2019-02-09T01:18:01.140Z,995.40
2019-02-09T01:18:01.709Z,995.36
2019-02-09T01:18:02.308Z,995.38
2019-02-09T01:18:02.907Z,995.38
2019-02-09T01:18:03.508Z,995.39
2019-02-09T01:18:04.108Z,995.39
2019-02-09T01:18:04.707Z,995.41
2019-02-09T01:18:05.306Z,995.42
2019-02-09T01:18:58.797Z,995.43
2019-02-09T01:18:59.361Z,995.45
2019-02-09T01:18:59.967Z,995.42
2019-02-09T01:19:00.560Z,995.48
2019-02-09T01:19:01.158Z,995.43
2019-02-09T01:19:01.759Z,995.48
2019-02-09T01:19:02.361Z,995.45
2019-02-09T01:19:02.959Z,995.46
2019-02-09T01:19:56.447Z,995.46
2019-02-09T01:19:57.011Z,995.44
2019-02-09T01:19:57.611Z,995.47
2019-02-09T01:19:58.215Z,995.43
2019-02-09T01:19:58.810Z,995.44
2019-02-09T01:19:59.411Z,995.47
2019-02-09T01:20:00.010Z,995.50
2019-02-09T01:20:00.611Z,995.45
2019-02-09T01:20:55.114Z,995.47
2019-02-09T01:20:55.688Z,995.49
2019-02-09T01:20:56.286Z,995.48
2019-02-09T01:20:56.886Z,995.48
2019-02-09T01:20:57.486Z,995.50
2019-02-09T01:20:58.086Z,995.51
2019-02-09T01:20:58.686Z,995.46
2019-02-09T01:20:59.286Z,995.48
2019-02-09T01:21:53.788Z,995.43
2019-02-09T01:21:54.362Z,995.45
2019-02-09T01:21:54.964Z,995.44
2019-02-09T01:21:55.562Z,995.44
2019-02-09T01:21:56.162Z,995.47
2019-02-09T01:21:56.763Z,995.45
2019-02-09T01:21:57.362Z,995.50
2019-02-09T01:21:57.962Z,995.48
2019-02-09T01:22:52.467Z,995.57
2019-02-09T01:22:53.039Z,995.52
2019-02-09T01:22:53.638Z,995.55
2019-02-09T01:22:54.237Z,995.52
2019-02-09T01:22:54.838Z,995.52
2019-02-09T01:22:55.438Z,995.53
2019-02-09T01:22:56.037Z,995.53
2019-02-09T01:22:56.637Z,995.52
2019-02-09T01:23:51.140Z,995.49
2019-02-09T01:23:51.714Z,995.53
2019-02-09T01:23:52.314Z,995.54
2019-02-09T01:23:52.918Z,995.50
2019-02-09T01:23:53.514Z,995.50
2019-02-09T01:23:54.116Z,995.50
2019-02-09T01:23:54.716Z,995.48
2019-02-09T01:23:55.313Z,995.53
2019-02-09T01:24:48.815Z,995.41
2019-02-09T01:24:49.370Z,995.43
2019-02-09T01:24:49.967Z,995.42
2019-02-09T01:24:50.567Z,995.42
2019-02-09T01:24:51.168Z,995.45
2019-02-09T01:24:51.766Z,995.46
2019-02-09T01:24:52.366Z,995.44
2019-02-09T01:24:52.966Z,995.45
2019-02-09T01:25:46.446Z,995.41
2019-02-09T01:25:47.021Z,995.41
2019-02-09T01:25:47.620Z,995.41
2019-02-09T01:25:48.221Z,995.47
2019-02-09T01:25:48.818Z,995.42
2019-02-09T01:25:49.419Z,995.43
2019-02-09T01:25:50.018Z,995.43
2019-02-09T01:25:50.617Z,995.43
2019-02-09T01:26:44.097Z,995.35
2019-02-09T01:26:44.672Z,995.41
2019-02-09T01:26:45.269Z,995.38
2019-02-09T01:26:45.873Z,995.38
2019-02-09T01:26:46.471Z,995.40
2019-02-09T01:26:47.070Z,995.38
2019-02-09T01:26:47.669Z,995.38
2019-02-09T01:26:48.269Z,995.38
2019-02-09T01:27:41.748Z,995.34
2019-02-09T01:27:42.322Z,995.38
2019-02-09T01:27:42.974Z,995.36
2019-02-09T01:27:43.522Z,995.37
2019-02-09T01:27:44.120Z,995.36
2019-02-09T01:27:44.720Z,995.39
2019-02-09T01:27:45.320Z,995.39
2019-02-09T01:27:45.920Z,995.37
2019-02-09T01:28:39.414Z,995.34
2019-02-09T01:28:39.972Z,995.35
2019-02-09T01:28:40.572Z,995.34
2019-02-09T01:28:41.173Z,995.32
2019-02-09T01:28:41.772Z,995.35
2019-02-09T01:28:42.375Z,995.36
2019-02-09T01:28:42.973Z,995.38
2019-02-09T01:28:43.572Z,995.39
2019-02-09T01:29:37.051Z,995.35
2019-02-09T01:29:37.624Z,995.32
2019-02-09T01:29:38.225Z,995.34
2019-02-09T01:29:38.825Z,995.35
2019-02-09T01:29:39.426Z,995.35
2019-02-09T01:29:40.025Z,995.36
2019-02-09T01:29:40.628Z,995.39
2019-02-09T01:29:41.224Z,995.37
2019-02-09T01:30:34.704Z,995.37
2019-02-09T01:30:35.276Z,995.34
2019-02-09T01:30:35.875Z,995.36
2019-02-09T01:30:36.476Z,995.33
2019-02-09T01:30:37.077Z,995.34
2019-02-09T01:30:37.676Z,995.37
2019-02-09T01:30:38.276Z,995.34
2019-02-09T01:30:38.875Z,995.34
2019-02-09T01:31:32.354Z,995.32
2019-02-09T01:31:32.929Z,995.35
2019-02-09T01:31:33.527Z,995.36
2019-02-09T01:31:34.129Z,995.30
2019-02-09T01:31:34.727Z,995.36
2019-02-09T01:31:35.327Z,995.34
2019-02-09T01:31:35.928Z,995.34
2019-02-09T01:31:36.527Z,995.35
2019-02-09T01:32:30.007Z,995.32
2019-02-09T01:32:30.581Z,995.33
2019-02-09T01:32:31.180Z,995.32
2019-02-09T01:32:31.778Z,995.31
2019-02-09T01:32:32.378Z,995.33
2019-02-09T01:32:32.979Z,995.32
2019-02-09T01:32:33.578Z,995.32
2019-02-09T01:32:34.178Z,995.32
2019-02-09T01:33:28.684Z,995.27
2019-02-09T01:33:29.254Z,995.27
2019-02-09T01:33:29.854Z,995.28
2019-02-09T01:33:30.455Z,995.27
2019-02-09T01:33:31.056Z,995.24
2019-02-09T01:33:31.655Z,995.23
2019-02-09T01:33:32.253Z,995.24
2019-02-09T01:33:32.854Z,995.25
2019-02-09T01:34:26.333Z,995.22
2019-02-09T01:34:26.906Z,995.24
2019-02-09T01:34:27.507Z,995.24
2019-02-09T01:34:28.107Z,995.25
2019-02-09T01:34:28.705Z,995.24
2019-02-09T01:34:29.306Z,995.27
2019-02-09T01:34:29.922Z,995.26
2019-02-09T01:34:30.506Z,995.26
2019-02-09T01:35:25.012Z,995.24
2019-02-09T01:35:25.582Z,995.24
2019-02-09T01:35:26.182Z,995.22
2019-02-09T01:35:26.781Z,995.25
2019-02-09T01:35:27.383Z,995.26
2019-02-09T01:35:27.982Z,995.27
2019-02-09T01:35:28.580Z,995.25
2019-02-09T01:35:29.179Z,995.23
2019-02-09T01:36:23.685Z,995.25
2019-02-09T01:36:24.259Z,995.25
2019-02-09T01:36:24.857Z,995.24
2019-02-09T01:36:25.458Z,995.22
2019-02-09T01:36:26.058Z,995.26
2019-02-09T01:36:26.658Z,995.26
2019-02-09T01:36:27.262Z,995.26
2019-02-09T01:36:27.857Z,995.25
2019-02-09T01:37:21.338Z,995.21
2019-02-09T01:37:21.908Z,995.18
2019-02-09T01:37:22.514Z,995.19
2019-02-09T01:37:23.111Z,995.22
2019-02-09T01:37:23.709Z,995.23
2019-02-09T01:37:24.363Z,995.22
2019-02-09T01:37:24.910Z,995.21
2019-02-09T01:37:25.509Z,995.20
2019-02-09T01:38:20.013Z,995.18
2019-02-09T01:38:20.586Z,995.20
2019-02-09T01:38:21.188Z,995.23
2019-02-09T01:38:21.785Z,995.25
2019-02-09T01:38:22.386Z,995.25
2019-02-09T01:38:22.985Z,995.22
2019-02-09T01:38:23.585Z,995.20
2019-02-09T01:38:24.184Z,995.20
2019-02-09T01:39:18.689Z,995.19
2019-02-09T01:39:19.262Z,995.19
2019-02-09T01:39:19.861Z,995.18
2019-02-09T01:39:20.460Z,995.18
2019-02-09T01:39:21.061Z,995.15
2019-02-09T01:39:21.663Z,995.18
2019-02-09T01:39:22.262Z,995.15
2019-02-09T01:39:22.861Z,995.17
2019-02-09T01:40:16.340Z,995.20
2019-02-09T01:40:16.914Z,995.18
2019-02-09T01:40:17.513Z,995.20
2019-02-09T01:40:18.113Z,995.16
2019-02-09T01:40:18.713Z,995.18
2019-02-09T01:40:19.314Z,995.18
2019-02-09T01:40:19.913Z,995.17
2019-02-09T01:40:20.516Z,995.21
2019-02-09T01:41:13.991Z,995.18
2019-02-09T01:41:14.573Z,995.18
2019-02-09T01:41:15.164Z,995.16
2019-02-09T01:41:15.766Z,995.15
2019-02-09T01:41:16.364Z,995.12
2019-02-09T01:41:16.964Z,995.13
2019-02-09T01:41:17.563Z,995.13
2019-02-09T01:41:18.167Z,995.14
2019-02-09T01:42:11.645Z,995.11
2019-02-09T01:42:12.216Z,995.13
2019-02-09T01:42:12.817Z,995.11
2019-02-09T01:42:13.417Z,995.08
2019-02-09T01:42:14.016Z,995.11
2019-02-09T01:42:14.616Z,995.13
2019-02-09T01:42:15.217Z,995.13
2019-02-09T01:42:15.815Z,995.12
2019-02-09T01:43:09.297Z,995.21
2019-02-09T01:43:09.868Z,995.17
2019-02-09T01:43:10.469Z,995.18
2019-02-09T01:43:11.068Z,995.17
2019-02-09T01:43:11.668Z,995.14
2019-02-09T01:43:12.268Z,995.12
2019-02-09T01:43:12.868Z,995.14
2019-02-09T01:43:13.468Z,995.14
2019-02-09T01:44:06.947Z,995.10
2019-02-09T01:44:07.523Z,995.10
2019-02-09T01:44:08.121Z,995.11
2019-02-09T01:44:08.720Z,995.15
2019-02-09T01:44:09.318Z,995.14
2019-02-09T01:44:09.920Z,995.13
2019-02-09T01:44:10.571Z,995.12
2019-02-09T01:44:11.123Z,995.17
2019-02-09T01:45:05.621Z,995.02
2019-02-09T01:45:06.195Z,995.01
2019-02-09T01:45:06.794Z,995.03
2019-02-09T01:45:07.395Z,995.04
2019-02-09T01:45:07.995Z,995.05
2019-02-09T01:45:08.595Z,995.03
2019-02-09T01:45:09.195Z,995.05
2019-02-09T01:45:09.796Z,995.07
2019-02-09T01:46:03.277Z,995.08
2019-02-09T01:46:03.849Z,995.05
2019-02-09T01:46:04.449Z,995.03
2019-02-09T01:46:05.047Z,995.02
2019-02-09T01:46:05.649Z,995.02
2019-02-09T01:46:06.247Z,995.01
2019-02-09T01:46:06.848Z,995.03
2019-02-09T01:46:07.447Z,995.02
2019-02-09T01:47:00.928Z,995.03
2019-02-09T01:47:01.499Z,995.04
2019-02-09T01:47:02.098Z,995.01
2019-02-09T01:47:02.698Z,995.01
2019-02-09T01:47:03.299Z,995.02
2019-02-09T01:47:03.905Z,995.00
2019-02-09T01:47:04.499Z,995.01
2019-02-09T01:47:05.097Z,995.02
2019-02-09T01:47:58.577Z,995.00
2019-02-09T01:47:59.154Z,995.02
2019-02-09T01:47:59.750Z,995.07
2019-02-09T01:48:00.352Z,995.04
2019-02-09T01:48:00.951Z,995.05
2019-02-09T01:48:01.552Z,995.04
2019-02-09T01:48:02.156Z,995.08
2019-02-09T01:48:02.750Z,995.03
2019-02-09T01:48:56.229Z,995.00
2019-02-09T01:48:56.803Z,995.07
2019-02-09T01:48:57.402Z,995.06
2019-02-09T01:48:58.004Z,995.02
2019-02-09T01:48:58.602Z,995.03
2019-02-09T01:48:59.202Z,995.02
2019-02-09T01:48:59.802Z,995.02
2019-02-09T01:49:00.401Z,995.00
2019-02-09T01:49:54.906Z,995.02
2019-02-09T01:49:55.477Z,995.01
2019-02-09T01:49:56.077Z,995.02
2019-02-09T01:49:56.677Z,995.01
2019-02-09T01:49:57.277Z,995.03
2019-02-09T01:49:57.878Z,995.06
2019-02-09T01:49:58.477Z,995.04
2019-02-09T01:49:59.076Z,995.05
2019-02-09T01:50:52.558Z,995.06
2019-02-09T01:50:53.139Z,995.02
2019-02-09T01:50:53.729Z,995.06
2019-02-09T01:50:54.330Z,995.01
2019-02-09T01:50:54.929Z,995.05
2019-02-09T01:50:55.530Z,995.07
2019-02-09T01:50:56.129Z,995.04
2019-02-09T01:50:56.728Z,995.02
2019-02-09T01:51:51.234Z,994.99
2019-02-09T01:51:51.805Z,994.99
2019-02-09T01:51:52.404Z,995.02
2019-02-09T01:51:53.005Z,995.00
2019-02-09T01:51:53.603Z,995.01
2019-02-09T01:51:54.204Z,995.04
2019-02-09T01:51:54.804Z,995.02
2019-02-09T01:51:55.405Z,995.04
2019-02-09T01:52:49.908Z,994.97
2019-02-09T01:52:50.482Z,995.00
2019-02-09T01:52:51.079Z,995.06
2019-02-09T01:52:51.679Z,995.03
2019-02-09T01:52:52.282Z,995.02
2019-02-09T01:52:52.879Z,995.00
2019-02-09T01:52:53.478Z,995.02
2019-02-09T01:52:54.079Z,995.03
2019-02-09T01:53:48.585Z,995.00
2019-02-09T01:53:49.156Z,995.00
2019-02-09T01:53:49.756Z,994.98
2019-02-09T01:53:50.357Z,994.96
2019-02-09T01:53:50.956Z,995.00
2019-02-09T01:53:51.556Z,994.97
2019-02-09T01:53:52.156Z,994.97
2019-02-09T01:53:52.755Z,994.93
2019-02-09T01:54:47.260Z,995.02
2019-02-09T01:54:47.837Z,995.04
2019-02-09T01:54:48.433Z,995.02
2019-02-09T01:54:49.031Z,995.01
2019-02-09T01:54:49.632Z,995.03
2019-02-09T01:54:50.232Z,995.02
2019-02-09T01:54:50.831Z,995.03
2019-02-09T01:54:51.432Z,995.04
2019-02-09T01:55:44.911Z,995.01
2019-02-09T01:55:45.484Z,995.01
2019-02-09T01:55:46.088Z,995.01
2019-02-09T01:55:46.682Z,995.00
2019-02-09T01:55:47.284Z,995.05
2019-02-09T01:55:47.884Z,995.05
2019-02-09T01:55:48.484Z,995.07
2019-02-09T01:55:49.084Z,995.07
2019-02-09T01:56:43.588Z,995.01
2019-02-09T01:56:44.162Z,995.02
2019-02-09T01:56:44.763Z,995.03
2019-02-09T01:56:45.359Z,995.02
2019-02-09T01:56:45.959Z,995.03
2019-02-09T01:56:46.561Z,995.00
2019-02-09T01:56:47.160Z,995.03